createdAt,value
2022-10-15T00:01:15.174Z,99778.03
2022-10-15T00:03:44.411Z,99782.69
2022-10-15T00:06:14.425Z,99775.75
2022-10-15T00:08:42.562Z,99770.06
2022-10-15T00:11:12.972Z,99784.66
2022-10-15T00:13:40.783Z,99776.56
2022-10-15T00:16:10.153Z,99777.00
2022-10-15T00:18:37.883Z,99780.41
2022-10-15T00:21:09.395Z,99774.44
2022-10-15T00:23:37.518Z,99784.25
2022-10-15T00:26:07.997Z,99776.44
2022-10-15T00:28:36.279Z,99773.19
2022-10-15T00:31:06.144Z,99780.09
2022-10-15T00:33:34.389Z,99772.75
2022-10-15T00:36:14.154Z,99770.50
2022-10-15T00:38:42.431Z,99765.09
2022-10-15T00:41:15.270Z,99769.31
2022-10-15T00:43:51.629Z,99761.97
2022-10-15T00:46:27.290Z,99767.91
2022-10-15T00:51:40.195Z,99751.69
2022-10-15T00:54:08.579Z,99743.78
2022-10-15T00:56:36.963Z,99748.00
2022-10-15T00:59:05.411Z,99750.84
2022-10-15T01:01:33.461Z,99752.03
2022-10-15T01:04:02.320Z,99745.81
2022-10-15T01:06:29.752Z,99749.78
2022-10-15T01:08:57.506Z,99746.25
2022-10-15T01:11:41.238Z,99747.38
2022-10-15T01:14:31.110Z,99737.59
2022-10-15T01:17:05.160Z,99742.69
2022-10-15T01:20:09.880Z,99744.25
2022-10-15T01:23:25.227Z,99741.13
2022-10-15T01:26:31.393Z,99745.47
2022-10-15T01:29:30.197Z,99736.44
2022-10-15T01:32:06.834Z,99736.88
2022-10-15T01:35:00.298Z,99741.72
2022-10-15T01:37:59.695Z,99729.53
2022-10-15T01:40:33.747Z,99726.25
2022-10-15T01:43:11.217Z,99726.97
2022-10-15T01:45:43.645Z,99725.09
2022-10-15T01:48:13.004Z,99724.41
2022-10-15T01:50:46.464Z,99735.59
2022-10-15T01:53:17.820Z,99729.22
2022-10-15T01:55:45.520Z,99720.41
2022-10-15T01:58:14.245Z,99724.97
2022-10-15T02:00:42.794Z,99727.53
2022-10-15T02:03:10.664Z,99732.06
2022-10-15T02:05:41.969Z,99728.81
2022-10-15T02:08:20.833Z,99737.88
2022-10-15T02:11:05.342Z,99735.19
2022-10-15T02:14:00.758Z,99725.22
2022-10-15T02:16:43.341Z,99725.91
2022-10-15T02:19:43.294Z,99728.59
2022-10-15T02:22:21.269Z,99732.00
2022-10-15T02:25:13.288Z,99731.16
2022-10-15T02:27:41.763Z,99734.53
2022-10-15T02:30:10.431Z,99726.44
2022-10-15T02:32:39.102Z,99724.47
2022-10-15T02:35:08.995Z,99723.91
2022-10-15T02:37:40.648Z,99716.12
2022-10-15T02:40:08.979Z,99712.88
2022-10-15T02:42:36.555Z,99715.00
2022-10-15T02:45:08.165Z,99713.44
2022-10-15T02:47:35.832Z,99712.44
2022-10-15T02:50:04.419Z,99716.28
2022-10-15T02:52:31.823Z,99714.28
2022-10-15T02:54:59.973Z,99717.47
2022-10-15T02:57:27.392Z,99713.06
2022-10-15T02:59:54.919Z,99707.78
2022-10-15T03:02:22.622Z,99708.53
2022-10-15T03:04:50.159Z,99700.59
2022-10-15T03:07:19.053Z,99700.03
2022-10-15T03:09:47.258Z,99690.38
2022-10-15T03:12:15.207Z,99696.47
2022-10-15T03:14:42.606Z,99695.63
2022-10-15T03:17:10.932Z,99699.44
2022-10-15T03:19:39.230Z,99703.16
2022-10-15T03:22:06.760Z,99699.88
2022-10-15T03:24:40.406Z,99690.22
2022-10-15T03:27:08.318Z,99690.22
2022-10-15T03:29:35.831Z,99691.62
2022-10-15T03:32:03.787Z,99699.16
2022-10-15T03:34:31.950Z,99706.94
2022-10-15T03:37:00.437Z,99703.53
2022-10-15T03:39:28.525Z,99707.38
2022-10-15T03:41:56.436Z,99703.25
2022-10-15T03:44:24.591Z,99705.38
2022-10-15T03:46:57.512Z,99706.53
2022-10-15T03:49:28.932Z,99703.13
2022-10-15T03:51:57.089Z,99705.13
2022-10-15T03:54:24.745Z,99707.25
2022-10-15T03:56:52.278Z,99714.91
2022-10-15T03:59:20.519Z,99713.22
2022-10-15T04:01:55.608Z,99701.03
2022-10-15T04:04:23.574Z,99702.44
2022-10-15T04:06:51.400Z,99704.41
2022-10-15T04:09:20.003Z,99692.94
2022-10-15T04:11:47.682Z,99693.91
2022-10-15T04:14:15.205Z,99690.38
2022-10-15T04:16:42.964Z,99689.53
2022-10-15T04:19:11.534Z,99691.78
2022-10-15T04:21:39.322Z,99692.09
2022-10-15T04:24:07.052Z,99692.78
2022-10-15T04:26:35.045Z,99695.91
2022-10-15T04:29:02.534Z,99698.16
2022-10-15T04:31:31.074Z,99701.03
2022-10-15T04:33:58.948Z,99704.00
2022-10-15T04:36:26.748Z,99707.09
2022-10-15T04:38:54.586Z,99708.09
2022-10-15T04:41:22.461Z,99709.78
2022-10-15T04:43:50.970Z,99711.03
2022-10-15T04:46:20.001Z,99710.19
2022-10-15T04:48:47.948Z,99707.78
2022-10-15T04:51:17.690Z,99704.78
2022-10-15T04:53:45.774Z,99702.50
2022-10-15T04:56:17.840Z,99700.97
2022-10-15T04:58:47.434Z,99706.63
2022-10-15T05:01:17.788Z,99707.31
2022-10-15T05:03:47.607Z,99717.50
2022-10-15T05:06:17.953Z,99712.03
2022-10-15T05:08:46.157Z,99709.19
2022-10-15T05:11:20.282Z,99713.16
2022-10-15T05:13:48.524Z,99707.62
2022-10-15T05:16:17.445Z,99712.31
2022-10-15T05:18:47.736Z,99711.56
2022-10-15T05:21:16.355Z,99714.53
2022-10-15T05:23:44.575Z,99713.25
2022-10-15T05:26:15.689Z,99722.22
2022-10-15T05:28:43.806Z,99721.94
2022-10-15T05:31:19.138Z,99721.22
2022-10-15T05:33:51.449Z,99715.97
2022-10-15T05:36:26.180Z,99717.53
2022-10-15T05:38:58.494Z,99710.13
2022-10-15T05:41:27.058Z,99710.28
2022-10-15T05:43:56.533Z,99706.91
2022-10-15T05:46:24.838Z,99704.34
2022-10-15T05:48:54.623Z,99710.31
2022-10-15T05:51:23.262Z,99709.44
2022-10-15T05:53:54.046Z,99714.28
2022-10-15T05:56:22.201Z,99707.53
2022-10-15T05:58:50.289Z,99704.69
2022-10-15T06:01:18.496Z,99714.06
2022-10-15T06:03:52.099Z,99712.94
2022-10-15T06:06:22.043Z,99710.66
2022-10-15T06:08:50.415Z,99728.25
2022-10-15T06:11:17.999Z,99726.13
2022-10-15T06:13:46.211Z,99730.78
2022-10-15T06:16:18.029Z,99740.16
2022-10-15T06:18:48.499Z,99740.97
2022-10-15T06:21:16.246Z,99750.81
2022-10-15T06:23:43.635Z,99748.19
2022-10-15T06:26:11.475Z,99741.78
2022-10-15T06:28:39.945Z,99753.88
2022-10-15T06:31:07.502Z,99752.84
2022-10-15T06:33:35.605Z,99752.03
2022-10-15T06:36:04.478Z,99751.16
2022-10-15T06:38:32.601Z,99746.59
2022-10-15T06:41:00.434Z,99753.16
2022-10-15T06:43:31.003Z,99754.91
2022-10-15T06:46:00.568Z,99757.31
2022-10-15T06:48:28.290Z,99758.28
2022-10-15T06:50:58.356Z,99764.37
2022-10-15T06:53:25.769Z,99762.13
2022-10-15T06:55:59.945Z,99762.53
2022-10-15T06:58:27.818Z,99766.94
2022-10-15T07:01:05.625Z,99778.16
2022-10-15T07:03:33.312Z,99776.44
2022-10-15T07:06:04.495Z,99784.31
2022-10-15T07:08:32.386Z,99781.84
2022-10-15T07:11:07.340Z,99785.47
2022-10-15T07:13:35.117Z,99775.72
2022-10-15T07:16:08.288Z,99777.53
2022-10-15T07:18:37.197Z,99772.97
2022-10-15T07:21:06.781Z,99776.66
2022-10-15T07:23:34.210Z,99769.56
2022-10-15T07:26:01.993Z,99776.88
2022-10-15T07:28:29.568Z,99772.97
2022-10-15T07:31:01.565Z,99769.16
2022-10-15T07:33:29.258Z,99759.00
2022-10-15T07:36:01.950Z,99764.03
2022-10-15T07:38:29.648Z,99762.84
2022-10-15T07:41:01.344Z,99767.16
2022-10-15T07:43:30.048Z,99766.97
2022-10-15T07:45:57.991Z,99762.53
2022-10-15T07:48:25.619Z,99765.66
2022-10-15T07:51:04.191Z,99764.34
2022-10-15T07:53:32.404Z,99771.97
2022-10-15T07:56:08.578Z,99773.66
2022-10-15T07:58:38.357Z,99768.56
2022-10-15T08:01:07.580Z,99783.09
2022-10-15T08:03:36.104Z,99784.22
2022-10-15T08:06:05.751Z,99783.16
2022-10-15T08:08:34.264Z,99784.94
2022-10-15T08:11:20.045Z,99792.34
2022-10-15T08:13:48.938Z,99795.06
2022-10-15T08:16:16.951Z,99797.94
2022-10-15T08:18:49.208Z,99790.81
2022-10-15T08:21:16.968Z,99797.44
2022-10-15T08:23:44.593Z,99789.06
2022-10-15T08:26:12.011Z,99790.16
2022-10-15T08:28:39.756Z,99794.78
2022-10-15T08:31:07.262Z,99793.28
2022-10-15T08:33:36.275Z,99790.41
2022-10-15T08:36:07.447Z,99791.94
2022-10-15T08:38:34.929Z,99797.53
2022-10-15T08:41:03.562Z,99796.34
2022-10-15T08:43:40.744Z,99796.81
2022-10-15T08:46:20.986Z,99796.72
2022-10-15T08:48:55.101Z,99798.19
2022-10-15T08:51:38.331Z,99791.66
2022-10-15T08:54:06.729Z,99791.41
2022-10-15T08:56:36.877Z,99793.44
2022-10-15T08:59:38.514Z,99794.34
2022-10-15T09:02:12.184Z,99799.22
2022-10-15T09:04:52.966Z,99794.81
2022-10-15T09:07:42.880Z,99781.78
2022-10-15T09:10:23.885Z,99788.94
2022-10-15T09:13:16.793Z,99790.81
2022-10-15T09:16:33.250Z,99795.06
2022-10-15T09:19:05.560Z,99810.13
2022-10-15T09:21:35.497Z,99808.28
2022-10-15T09:24:04.009Z,99813.56
2022-10-15T09:26:50.193Z,99811.63
2022-10-15T09:29:24.305Z,99813.69
2022-10-15T09:32:19.785Z,99816.00
2022-10-15T09:34:53.012Z,99812.34
2022-10-15T09:37:26.156Z,99814.88
2022-10-15T09:40:25.023Z,99805.41
2022-10-15T09:42:52.982Z,99801.50
2022-10-15T09:45:24.120Z,99800.41
2022-10-15T09:47:52.350Z,99805.88
2022-10-15T09:50:19.801Z,99802.78
2022-10-15T09:53:10.985Z,99799.50
2022-10-15T09:55:48.183Z,99797.41
2022-10-15T09:58:23.532Z,99797.75
2022-10-15T10:00:58.438Z,99803.47
2022-10-15T10:03:32.546Z,99793.63
2022-10-15T10:06:11.729Z,99794.41
2022-10-15T10:08:51.507Z,99800.91
2022-10-15T10:11:20.120Z,99798.00
2022-10-15T10:13:55.673Z,99793.88
2022-10-15T10:16:23.791Z,99791.75
2022-10-15T10:19:09.955Z,99790.63
2022-10-15T10:21:39.310Z,99787.06
2022-10-15T10:24:20.637Z,99790.47
2022-10-15T10:26:48.416Z,99784.19
2022-10-15T10:29:32.938Z,99782.22
2022-10-15T10:32:00.876Z,99785.94
2022-10-15T10:34:33.073Z,99789.50
2022-10-15T10:37:03.809Z,99777.47
2022-10-15T10:39:33.218Z,99767.13
2022-10-15T10:42:02.479Z,99766.28
2022-10-15T10:44:35.982Z,99763.53
2022-10-15T10:47:25.183Z,99764.00
2022-10-15T10:49:58.516Z,99759.63
2022-10-15T10:52:38.521Z,99757.75
2022-10-15T10:55:16.493Z,99763.03
2022-10-15T10:57:54.240Z,99759.81
2022-10-15T11:00:41.577Z,99761.78
2022-10-15T11:03:36.162Z,99763.03
2022-10-15T11:06:09.916Z,99760.47
2022-10-15T11:09:10.187Z,99750.09
2022-10-15T11:11:45.510Z,99750.94
2022-10-15T11:14:31.680Z,99746.59
2022-10-15T11:17:05.247Z,99748.91
2022-10-15T11:20:12.159Z,99756.75
2022-10-15T11:22:57.044Z,99732.53
2022-10-15T11:25:33.929Z,99732.97
2022-10-15T11:28:28.920Z,99725.00
2022-10-15T11:31:02.806Z,99708.19
2022-10-15T11:33:30.194Z,99711.78
2022-10-15T11:36:14.908Z,99708.53
2022-10-15T11:38:49.022Z,99704.13
2022-10-15T11:41:29.544Z,99698.53
2022-10-15T11:44:26.961Z,99706.56
2022-10-15T11:47:11.139Z,99700.41
2022-10-15T11:49:44.669Z,99693.97
2022-10-15T11:52:25.225Z,99695.63
2022-10-15T11:55:24.174Z,99688.00
2022-10-15T11:57:54.394Z,99693.69
2022-10-15T12:00:35.014Z,99697.84
2022-10-15T12:03:06.768Z,99701.31
2022-10-15T12:05:38.825Z,99698.94
2022-10-15T12:08:07.568Z,99699.91
2022-10-15T12:10:52.907Z,99692.88
2022-10-15T12:13:26.481Z,99682.09
2022-10-15T12:15:59.871Z,99686.19
2022-10-15T12:18:38.613Z,99685.16
2022-10-15T12:21:33.887Z,99679.25
2022-10-15T12:24:03.612Z,99680.00
2022-10-15T12:26:32.800Z,99676.47
2022-10-15T12:29:05.713Z,99679.81
2022-10-15T12:31:48.556Z,99679.13
2022-10-15T12:34:42.495Z,99681.34
2022-10-15T12:37:18.056Z,99687.47
2022-10-15T12:39:53.524Z,99687.34
2022-10-15T12:42:33.629Z,99685.56
2022-10-15T12:45:03.984Z,99676.00
2022-10-15T12:47:54.469Z,99672.91
2022-10-15T12:50:27.137Z,99672.09
2022-10-15T12:52:54.592Z,99667.50
2022-10-15T12:55:28.402Z,99666.28
2022-10-15T12:58:03.686Z,99667.41
2022-10-15T13:00:37.329Z,99655.34
2022-10-15T13:03:31.696Z,99667.50
2022-10-15T13:06:40.120Z,99666.84
2022-10-15T13:09:10.337Z,99668.31
2022-10-15T13:11:47.844Z,99671.66
2022-10-15T13:14:47.374Z,99676.44
2022-10-15T13:17:19.957Z,99669.03
2022-10-15T13:20:08.465Z,99672.69
2022-10-15T13:22:36.813Z,99678.41
2022-10-15T13:25:04.670Z,99665.47
2022-10-15T13:27:39.737Z,99680.75
2022-10-15T13:30:13.416Z,99675.78
2022-10-15T13:32:47.350Z,99665.25
2022-10-15T13:35:24.306Z,99669.25
2022-10-15T13:37:52.307Z,99675.72
2022-10-15T13:40:27.175Z,99681.00
2022-10-15T13:43:02.039Z,99668.19
2022-10-15T13:45:30.258Z,99670.66
2022-10-15T13:47:57.717Z,99676.13
2022-10-15T13:50:27.926Z,99675.38
2022-10-15T13:53:01.933Z,99689.59
2022-10-15T13:55:36.301Z,99680.87
2022-10-15T13:58:06.800Z,99684.16
2022-10-15T14:00:36.139Z,99679.28
2022-10-15T14:03:13.994Z,99680.25
2022-10-15T14:05:43.001Z,99672.13
2022-10-15T14:08:37.391Z,99668.41
2022-10-15T14:11:04.924Z,99671.44
2022-10-15T14:13:32.901Z,99668.50
2022-10-15T14:16:14.210Z,99667.31
2022-10-15T14:18:48.955Z,99671.28
2022-10-15T14:21:20.035Z,99677.66
2022-10-15T14:23:48.763Z,99668.69
2022-10-15T14:26:23.902Z,99663.19
2022-10-15T14:28:52.389Z,99658.94
2022-10-15T14:31:33.910Z,99657.44
2022-10-15T14:34:01.708Z,99664.47
2022-10-15T14:36:31.409Z,99650.56
2022-10-15T14:39:42.940Z,99658.31
2022-10-15T14:42:27.160Z,99641.72
2022-10-15T14:44:55.965Z,99650.66
2022-10-15T14:47:26.428Z,99652.13
2022-10-15T14:49:56.101Z,99643.72
2022-10-15T14:52:23.972Z,99659.28
2022-10-15T14:55:09.458Z,99661.88
2022-10-15T14:57:41.831Z,99655.78
2022-10-15T15:00:28.191Z,99660.06
2022-10-15T15:02:57.213Z,99662.91
2022-10-15T15:05:29.175Z,99667.09
2022-10-15T15:07:57.376Z,99664.19
2022-10-15T15:10:26.251Z,99659.53
2022-10-15T15:12:56.657Z,99669.69
2022-10-15T15:15:26.506Z,99668.59
2022-10-15T15:17:54.081Z,99672.34
2022-10-15T15:20:22.266Z,99681.00
2022-10-15T15:22:51.943Z,99683.88
2022-10-15T15:25:21.065Z,99680.75
2022-10-15T15:27:48.589Z,99677.84
2022-10-15T15:30:19.110Z,99683.59
2022-10-15T15:32:47.081Z,99679.91
2022-10-15T15:35:57.631Z,99677.72
2022-10-15T15:38:31.487Z,99683.53
2022-10-15T15:41:01.968Z,99686.56
2022-10-15T15:43:29.719Z,99676.25
2022-10-15T15:45:57.284Z,99680.53
2022-10-15T15:48:24.873Z,99690.19
2022-10-15T15:50:52.903Z,99686.75
2022-10-15T15:53:20.392Z,99692.88
2022-10-15T15:55:47.855Z,99692.72
2022-10-15T15:58:15.699Z,99691.53
2022-10-15T16:00:43.136Z,99690.88
2022-10-15T16:03:14.494Z,99695.28
2022-10-15T16:05:42.334Z,99694.91
2022-10-15T16:08:10.952Z,99695.91
2022-10-15T16:10:38.862Z,99704.81
2022-10-15T16:13:06.325Z,99696.00
2022-10-15T16:15:33.725Z,99700.25
2022-10-15T16:18:01.549Z,99706.53
2022-10-15T16:20:28.989Z,99707.41
2022-10-15T16:22:56.497Z,99712.19
2022-10-15T16:25:26.477Z,99712.88
2022-10-15T16:27:57.288Z,99717.28
2022-10-15T16:30:25.154Z,99719.34
2022-10-15T16:32:53.667Z,99723.06
2022-10-15T16:35:21.171Z,99720.72
2022-10-15T16:37:49.096Z,99727.03
2022-10-15T16:40:16.547Z,99734.00
2022-10-15T16:42:43.957Z,99734.66
2022-10-15T16:45:11.701Z,99732.97
2022-10-15T16:47:39.152Z,99734.06
2022-10-15T16:50:07.207Z,99746.75
2022-10-15T16:52:35.204Z,99743.69
2022-10-15T16:55:02.676Z,99745.72
2022-10-15T16:57:30.275Z,99754.56
2022-10-15T16:59:57.987Z,99756.59
2022-10-15T17:02:25.689Z,99756.78
2022-10-15T17:04:53.431Z,99761.88
2022-10-15T17:07:21.226Z,99768.34
2022-10-15T17:12:17.177Z,99771.91
2022-10-15T17:14:51.629Z,99773.78
2022-10-15T17:17:19.729Z,99772.25
2022-10-15T17:19:47.463Z,99765.78
2022-10-15T17:22:14.992Z,99784.31
2022-10-15T17:24:42.472Z,99770.72
2022-10-15T17:27:10.161Z,99776.69
2022-10-15T17:29:37.624Z,99771.91
2022-10-15T17:32:05.129Z,99778.88
2022-10-15T17:34:33.159Z,99782.78
2022-10-15T17:37:00.676Z,99783.81
2022-10-15T17:39:28.109Z,99789.25
2022-10-15T17:41:55.799Z,99782.88
2022-10-15T17:44:23.249Z,99792.53
2022-10-15T17:46:52.475Z,99803.56
2022-10-15T17:49:22.957Z,99797.47
2022-10-15T17:51:51.553Z,99804.41
2022-10-15T17:54:19.629Z,99804.25
2022-10-15T17:56:48.668Z,99811.72
2022-10-15T17:59:16.181Z,99810.50
2022-10-15T18:02:00.550Z,99814.75
2022-10-15T18:04:31.353Z,99811.53
2022-10-15T18:06:58.896Z,99806.97
2022-10-15T18:09:27.311Z,99804.41
2022-10-15T18:11:56.653Z,99804.91
2022-10-15T18:14:29.357Z,99817.81
2022-10-15T18:16:57.307Z,99815.44
2022-10-15T18:19:26.791Z,99817.13
2022-10-15T18:21:55.544Z,99811.84
2022-10-15T18:24:23.677Z,99817.81
2022-10-15T18:26:51.420Z,99811.53
2022-10-15T18:29:19.585Z,99826.66
2022-10-15T18:31:47.609Z,99820.19
2022-10-15T18:34:15.299Z,99829.72
2022-10-15T18:36:43.675Z,99839.38
2022-10-15T18:39:12.016Z,99832.25
2022-10-15T18:41:40.269Z,99831.41
2022-10-15T18:44:14.785Z,99839.38
2022-10-15T18:46:44.820Z,99832.59
2022-10-15T18:49:14.904Z,99825.63
2022-10-15T18:51:43.254Z,99830.38
2022-10-15T18:54:11.026Z,99826.81
2022-10-15T18:56:39.181Z,99820.69
2022-10-15T18:59:06.974Z,99828.50
2022-10-15T19:01:41.709Z,99828.00
2022-10-15T19:04:13.499Z,99830.53
2022-10-15T19:06:52.156Z,99829.69
2022-10-15T19:09:26.082Z,99840.06
2022-10-15T19:11:55.071Z,99843.28
2022-10-15T19:14:23.869Z,99841.56
2022-10-15T19:16:51.608Z,99848.03
2022-10-15T19:19:21.613Z,99852.44
2022-10-15T19:21:51.267Z,99850.22
2022-10-15T19:24:20.348Z,99848.72
2022-10-15T19:26:48.996Z,99839.88
2022-10-15T19:29:16.821Z,99844.97
2022-10-15T19:31:46.336Z,99845.66
2022-10-15T19:34:14.111Z,99853.97
2022-10-15T19:36:46.259Z,99864.84
2022-10-15T19:39:17.512Z,99875.88
2022-10-15T19:41:45.284Z,99867.22
2022-10-15T19:44:15.908Z,99871.94
2022-10-15T19:46:43.778Z,99864.66
2022-10-15T19:49:12.564Z,99861.25
2022-10-15T19:51:40.248Z,99862.28
2022-10-15T19:54:07.927Z,99874.31
2022-10-15T19:56:35.787Z,99871.28
2022-10-15T19:59:05.161Z,99879.06
2022-10-15T20:01:33.578Z,99888.06
2022-10-15T20:04:05.911Z,99884.03
2022-10-15T20:06:35.847Z,99894.56
2022-10-15T20:09:04.470Z,99894.19
2022-10-15T20:11:32.733Z,99897.78
2022-10-15T20:14:00.901Z,99894.72
2022-10-15T20:16:32.478Z,99898.28
2022-10-15T20:19:04.955Z,99892.50
2022-10-15T20:21:33.326Z,99896.91
2022-10-15T20:24:04.329Z,99906.75
2022-10-15T20:26:32.435Z,99903.53
2022-10-15T20:29:00.246Z,99897.78
2022-10-15T20:31:32.318Z,99895.88
2022-10-15T20:34:00.946Z,99901.31
2022-10-15T20:36:28.487Z,99904.53
2022-10-15T20:38:57.570Z,99913.22
2022-10-15T20:41:25.348Z,99914.84
2022-10-15T20:43:54.999Z,99920.28
2022-10-15T20:46:29.791Z,99929.91
2022-10-15T20:49:00.532Z,99917.56
2022-10-15T20:51:29.601Z,99925.00
2022-10-15T20:53:58.713Z,99926.22
2022-10-15T20:56:26.250Z,99925.22
2022-10-15T20:58:54.000Z,99924.00
2022-10-15T21:01:21.753Z,99927.19
2022-10-15T21:03:49.204Z,99925.06
2022-10-15T21:06:16.735Z,99929.88
2022-10-15T21:08:44.417Z,99921.97
2022-10-15T21:11:11.861Z,99937.09
2022-10-15T21:13:39.318Z,99932.72
2022-10-15T21:16:08.098Z,99934.78
2022-10-15T21:18:36.398Z,99937.16
2022-10-15T21:21:08.595Z,99931.44
2022-10-15T21:23:37.485Z,99935.53
2022-10-15T21:26:10.160Z,99931.31
2022-10-15T21:28:37.926Z,99934.03
2022-10-15T21:31:09.380Z,99932.50
2022-10-15T21:33:37.307Z,99928.81
2022-10-15T21:36:18.441Z,99928.19
2022-10-15T21:38:45.887Z,99925.56
2022-10-15T21:41:13.538Z,99926.53
2022-10-15T21:43:40.996Z,99928.75
2022-10-15T21:46:13.091Z,99933.97
2022-10-15T21:48:41.916Z,99934.50
2022-10-15T21:51:15.736Z,99938.44
2022-10-15T21:53:43.945Z,99938.50
2022-10-15T21:56:12.030Z,99946.75
2022-10-15T21:58:40.189Z,99947.25
2022-10-15T22:01:21.768Z,99954.50
2022-10-15T22:03:50.996Z,99953.69
2022-10-15T22:06:19.438Z,99949.75
2022-10-15T22:08:47.608Z,99959.91
2022-10-15T22:11:23.725Z,99961.50
2022-10-15T22:13:53.317Z,99962.00
2022-10-15T22:16:21.694Z,99958.25
2022-10-15T22:18:49.227Z,99961.78
2022-10-15T22:21:19.431Z,99961.50
2022-10-15T22:24:14.870Z,99959.78
2022-10-15T22:26:47.534Z,99964.56
2022-10-15T22:29:22.654Z,99961.34
2022-10-15T22:31:50.418Z,99964.19
2022-10-15T22:34:18.518Z,99969.31
2022-10-15T22:36:46.384Z,99961.00
2022-10-15T22:39:16.099Z,99967.94
2022-10-15T22:41:45.193Z,99966.09
2022-10-15T22:44:18.427Z,99970.06
2022-10-15T22:46:46.374Z,99969.78
2022-10-15T22:49:14.133Z,99974.47
2022-10-15T22:51:42.234Z,99973.62
2022-10-15T22:54:10.080Z,99981.75
2022-10-15T22:56:37.949Z,99980.06
2022-10-15T22:59:05.639Z,99975.84
2022-10-15T23:01:34.604Z,99981.25
2022-10-15T23:04:05.193Z,99984.28
2022-10-15T23:06:35.805Z,99977.22
2022-10-15T23:09:04.623Z,99985.69
2022-10-15T23:11:37.760Z,99978.37
2022-10-15T23:14:07.526Z,99983.16
2022-10-15T23:16:40.748Z,99981.62
2022-10-15T23:19:17.144Z,99987.03
2022-10-15T23:21:53.769Z,99987.41
2022-10-15T23:24:23.487Z,99983.66
2022-10-15T23:26:50.993Z,99987.91
2022-10-15T23:29:21.165Z,100001.94
2022-10-15T23:31:49.624Z,100004.66
2022-10-15T23:34:19.688Z,99997.25
2022-10-15T23:36:47.543Z,100001.44
2022-10-15T23:39:18.902Z,100006.37
2022-10-15T23:41:46.718Z,100006.69
2022-10-15T23:44:14.154Z,100008.41
2022-10-15T23:46:42.052Z,100012.44
2022-10-15T23:49:09.955Z,100016.69
2022-10-15T23:51:37.611Z,100016.22
2022-10-15T23:54:12.882Z,100017.53
2022-10-15T23:56:40.339Z,100022.31
2022-10-15T23:59:08.217Z,100013.13
